Time;durP1;ratioP1;P1;durP2;ratioP2;P2;SDS_P1;SDS_P2;PMS_P1;PMS_P2;Temp;Humidity;BMP_temperature;BMP_pressure;BME280_temperature;BME280_humidity;BME280_pressure;Samples;Min_cycle;Max_cycle;Signal;HPM_P1;HPM_P2
2021/06/07 00:01:10;;;;;;;6.45;4.40;;;;;;;;;;5148330;27;20121;-65
2021/06/07 00:03:36;;;;;;;8.88;5.05;;;;;;;;;;5134664;27;20026;-64
2021/06/07 00:06:03;;;;;;;7.38;4.32;;;;;;;;;;5144000;27;20485;-65
2021/06/07 00:08:29;;;;;;;5.90;4.40;;;;;;;;;;5155315;27;20029;-64
2021/06/07 00:10:55;;;;;;;7.53;4.53;;;;;;;;;;5154797;27;20027;-64
2021/06/07 00:13:24;;;;;;;6.78;4.20;;;;;;;;;;5155218;27;20019;-64
2021/06/07 00:15:51;;;;;;;9.48;4.80;;;;;;;;;;5155264;27;20023;-64
2021/06/07 00:18:17;;;;;;;6.88;4.82;;;;;;;;;;5138624;27;20022;-64
2021/06/07 00:20:44;;;;;;;8.18;4.45;;;;;;;;;;5134412;27;20102;-64
2021/06/07 00:23:11;;;;;;;8.77;4.65;;;;;;;;;;5134434;27;20498;-64
2021/06/07 00:25:39;;;;;;;6.72;4.25;;;;;;;;;;5134479;27;20032;-64
2021/06/07 00:28:06;;;;;;;6.30;4.63;;;;;;;;;;5134363;27;20496;-64
2021/06/07 00:30:32;;;;;;;6.20;4.47;;;;;;;;;;5134246;27;20047;-65
2021/06/07 00:32:58;;;;;;;6.22;4.25;;;;;;;;;;5134237;27;20087;-64
2021/06/07 00:35:25;;;;;;;7.07;4.75;;;;;;;;;;5134322;27;20482;-65
2021/06/07 00:37:52;;;;;;;5.80;4.30;;;;;;;;;;5134162;27;20023;-65
2021/06/07 00:40:19;;;;;;;8.98;4.45;;;;;;;;;;5133809;27;20023;-64
2021/06/07 00:42:45;;;;;;;7.40;4.20;;;;;;;;;;5133828;27;20019;-64
2021/06/07 00:45:13;;;;;;;7.47;4.30;;;;;;;;;;5133697;27;20114;-64
2021/06/07 00:47:40;;;;;;;6.43;4.40;;;;;;;;;;5133804;27;20032;-65
2021/06/07 00:50:09;;;;;;;7.15;4.68;;;;;;;;;;5115540;27;20022;-65
2021/06/07 00:52:36;;;;;;;5.75;3.88;;;;;;;;;;5133905;27;20015;-65
2021/06/07 00:55:03;;;;;;;7.20;4.28;;;;;;;;;;5146031;27;20019;-65
2021/06/07 00:57:30;;;;;;;7.68;3.90;;;;;;;;;;5154516;27;20378;-65
2021/06/07 00:59:56;;;;;;;6.50;4.60;;;;;;;;;;5154557;27;20071;-65
2021/06/07 01:02:22;;;;;;;8.82;4.18;;;;;;;;;;5154388;27;20501;-65
2021/06/07 01:04:48;;;;;;;6.03;4.30;;;;;;;;;;5154293;27;20073;-65
2021/06/07 01:07:14;;;;;;;7.72;4.60;;;;;;;;;;5154005;27;20230;-65
2021/06/07 01:09:40;;;;;;;6.45;4.20;;;;;;;;;;5134837;27;20007;-65
2021/06/07 01:12:06;;;;;;;6.40;4.53;;;;;;;;;;5133529;27;20106;-64
2021/06/07 01:14:32;;;;;;;6.47;4.65;;;;;;;;;;5133283;27;20019;-65
2021/06/07 01:16:58;;;;;;;6.63;4.30;;;;;;;;;;5138032;27;20163;-64
2021/06/07 01:19:24;;;;;;;6.75;4.65;;;;;;;;;;5154043;27;20653;-64
2021/06/07 01:21:51;;;;;;;7.25;4.63;;;;;;;;;;5153103;27;20021;-65
2021/06/07 01:24:17;;;;;;;7.57;4.50;;;;;;;;;;5135328;27;20038;-65
2021/06/07 01:26:43;;;;;;;6.53;4.55;;;;;;;;;;5153829;27;20215;-64
2021/06/07 01:29:09;;;;;;;6.22;4.60;;;;;;;;;;5153680;27;20022;-64
2021/06/07 01:31:36;;;;;;;12.20;5.15;;;;;;;;;;5153665;27;20018;-64
2021/06/07 01:34:02;;;;;;;8.43;4.82;;;;;;;;;;5153835;27;20044;-64
2021/06/07 01:36:28;;;;;;;7.47;4.88;;;;;;;;;;5153756;27;20080;-64
2021/06/07 01:38:54;;;;;;;8.43;4.75;;;;;;;;;;5153697;27;20034;-64
2021/06/07 01:41:21;;;;;;;6.68;4.50;;;;;;;;;;5153639;27;20043;-64
2021/06/07 01:43:47;;;;;;;6.60;4.40;;;;;;;;;;5153670;27;20080;-65
2021/06/07 01:46:13;;;;;;;6.43;4.75;;;;;;;;;;5153630;27;20477;-65
2021/06/07 01:48:39;;;;;;;7.47;4.40;;;;;;;;;;5153477;27;20061;-64
2021/06/07 01:51:06;;;;;;;8.00;4.80;;;;;;;;;;5153557;27;20079;-64
2021/06/07 01:53:33;;;;;;;8.32;4.38;;;;;;;;;;5153427;27;20038;-64
2021/06/07 01:56:01;;;;;;;6.68;4.68;;;;;;;;;;5153124;27;20034;-64
2021/06/07 01:58:27;;;;;;;6.32;4.38;;;;;;;;;;5153439;27;20097;-64
2021/06/07 02:00:53;;;;;;;6.28;4.32;;;;;;;;;;5153348;27;20114;-64
2021/06/07 02:03:20;;;;;;;6.03;4.40;;;;;;;;;;5134624;27;20602;-65
2021/06/07 02:05:48;;;;;;;6.90;4.32;;;;;;;;;;5153010;27;20159;-64
2021/06/07 02:08:15;;;;;;;9.75;4.70;;;;;;;;;;5153220;27;20143;-64
2021/06/07 02:10:45;;;;;;;8.00;4.88;;;;;;;;;;5153030;27;20011;-64
2021/06/07 02:13:12;;;;;;;7.10;4.63;;;;;;;;;;5153047;27;20393;-64
2021/06/07 02:15:38;;;;;;;9.85;4.72;;;;;;;;;;5152990;27;20043;-64
2021/06/07 02:18:05;;;;;;;6.97;4.57;;;;;;;;;;5153107;27;20358;-65
2021/06/07 02:20:32;;;;;;;6.45;4.45;;;;;;;;;;5153149;27;20046;-64
2021/06/07 02:22:58;;;;;;;10.43;4.70;;;;;;;;;;5152887;27;20023;-64
2021/06/07 02:25:24;;;;;;;9.30;4.60;;;;;;;;;;5152986;27;20063;-64
2021/06/07 02:27:52;;;;;;;8.70;4.57;;;;;;;;;;5152836;27;20034;-64
2021/06/07 02:30:19;;;;;;;6.97;4.55;;;;;;;;;;5152893;27;20054;-64
2021/06/07 02:32:46;;;;;;;6.75;4.88;;;;;;;;;;5152679;27;20018;-64
2021/06/07 02:35:13;;;;;;;8.15;4.88;;;;;;;;;;5152784;27;20109;-64
2021/06/07 02:37:39;;;;;;;6.93;4.38;;;;;;;;;;5152870;27;20059;-64
2021/06/07 02:40:09;;;;;;;5.70;4.32;;;;;;;;;;5152721;27;20424;-65
2021/06/07 02:42:36;;;;;;;8.48;4.50;;;;;;;;;;5152878;27;20022;-65
2021/06/07 02:45:04;;;;;;;6.97;4.75;;;;;;;;;;5152446;27;20039;-64
2021/06/07 02:47:30;;;;;;;6.85;4.35;;;;;;;;;;5152732;27;20029;-63
2021/06/07 02:49:56;;;;;;;8.02;4.68;;;;;;;;;;5152745;27;20078;-64
2021/06/07 02:52:22;;;;;;;10.52;4.72;;;;;;;;;;5134095;27;20111;-63
2021/06/07 02:54:48;;;;;;;9.25;4.95;;;;;;;;;;5152614;27;20026;-63
2021/06/07 02:57:14;;;;;;;7.30;4.40;;;;;;;;;;5152686;27;20019;-64
2021/06/07 02:59:40;;;;;;;7.30;4.65;;;;;;;;;;5152611;27;20111;-64
2021/06/07 03:02:06;;;;;;;5.88;4.45;;;;;;;;;;5152598;27;20015;-64
2021/06/07 03:04:32;;;;;;;7.80;4.38;;;;;;;;;;5152474;27;20061;-64
2021/06/07 03:06:58;;;;;;;6.93;4.03;;;;;;;;;;5152431;27;20019;-63
2021/06/07 03:09:25;;;;;;;6.93;4.45;;;;;;;;;;5152684;27;20025;-63
2021/06/07 03:11:51;;;;;;;6.45;4.20;;;;;;;;;;5152577;27;20054;-64
2021/06/07 03:14:17;;;;;;;7.65;4.60;;;;;;;;;;5152463;27;20019;-64
2021/06/07 03:16:43;;;;;;;10.35;5.00;;;;;;;;;;5149154;27;20015;-64
2021/06/07 03:19:09;;;;;;;8.05;5.10;;;;;;;;;;5131991;28;20102;-64
2021/06/07 03:21:35;;;;;;;7.80;4.70;;;;;;;;;;5131727;28;20462;-64
2021/06/07 03:24:01;;;;;;;12.70;5.20;;;;;;;;;;5131552;28;20016;-64
2021/06/07 03:26:27;;;;;;;8.02;4.18;;;;;;;;;;5131513;28;20031;-64
2021/06/07 03:28:53;;;;;;;6.57;4.30;;;;;;;;;;5131690;28;20019;-62
2021/06/07 03:31:20;;;;;;;7.63;4.47;;;;;;;;;;5131606;28;20558;-63
2021/06/07 03:33:46;;;;;;;8.75;4.40;;;;;;;;;;5131585;28;20050;-63
2021/06/07 03:36:12;;;;;;;8.05;4.25;;;;;;;;;;5131378;28;20470;-63
2021/06/07 03:38:38;;;;;;;6.70;4.50;;;;;;;;;;5113097;28;20034;-63
2021/06/07 03:41:05;;;;;;;6.53;3.97;;;;;;;;;;5131384;28;20043;-64
2021/06/07 03:43:33;;;;;;;8.80;4.72;;;;;;;;;;5131501;27;20030;-64
2021/06/07 03:45:59;;;;;;;6.13;4.20;;;;;;;;;;5134547;27;20031;-64
2021/06/07 03:48:26;;;;;;;8.73;4.57;;;;;;;;;;5135101;27;20020;-64
2021/06/07 03:50:52;;;;;;;7.10;4.20;;;;;;;;;;5137865;27;20057;-64
2021/06/07 03:53:18;;;;;;;8.35;4.55;;;;;;;;;;5137167;27;20045;-64
2021/06/07 03:55:45;;;;;;;6.18;4.10;;;;;;;;;;5137414;27;20023;-64
2021/06/07 03:58:11;;;;;;;11.73;4.40;;;;;;;;;;5135001;27;20558;-64
2021/06/07 04:00:38;;;;;;;10.68;5.00;;;;;;;;;;5135002;27;20062;-64
2021/06/07 04:03:06;;;;;;;7.72;4.32;;;;;;;;;;5134969;27;20098;-64
2021/06/07 04:05:32;;;;;;;9.13;4.18;;;;;;;;;;5134846;27;20060;-64
2021/06/07 04:08:00;;;;;;;7.60;4.15;;;;;;;;;;5135013;27;20027;-64
2021/06/07 04:10:27;;;;;;;8.95;4.10;;;;;;;;;;5134828;27;20041;-65
2021/06/07 04:12:54;;;;;;;11.00;4.35;;;;;;;;;;5134598;27;20027;-65
2021/06/07 04:15:21;;;;;;;8.00;3.97;;;;;;;;;;5134743;27;20071;-64
2021/06/07 04:17:48;;;;;;;7.22;4.15;;;;;;;;;;5134418;27;20021;-64
2021/06/07 04:20:15;;;;;;;9.93;4.03;;;;;;;;;;5134546;27;20030;-65
2021/06/07 04:22:42;;;;;;;6.90;3.85;;;;;;;;;;5134474;27;20023;-65
2021/06/07 04:25:09;;;;;;;9.30;4.53;;;;;;;;;;5134475;27;20382;-65
2021/06/07 04:27:35;;;;;;;8.48;4.22;;;;;;;;;;5134443;27;20027;-64
2021/06/07 04:30:05;;;;;;;7.93;3.85;;;;;;;;;;5134347;27;20063;-64
2021/06/07 04:32:32;;;;;;;7.25;3.78;;;;;;;;;;5134159;27;20019;-65
2021/06/07 04:35:00;;;;;;;8.90;4.40;;;;;;;;;;5133956;27;20057;-64
2021/06/07 04:37:26;;;;;;;6.68;4.35;;;;;;;;;;5133786;27;20114;-65
2021/06/07 04:39:52;;;;;;;7.63;4.13;;;;;;;;;;5134310;27;20019;-64
2021/06/07 04:42:18;;;;;;;9.75;4.63;;;;;;;;;;5139280;27;20042;-66
2021/06/07 04:44:44;;;;;;;11.52;4.22;;;;;;;;;;5118494;27;20126;-64
2021/06/07 04:47:10;;;;;;;8.80;4.28;;;;;;;;;;5134371;27;20051;-64
2021/06/07 04:49:36;;;;;;;9.00;4.25;;;;;;;;;;5134151;27;20627;-64
2021/06/07 04:52:03;;;;;;;7.13;4.10;;;;;;;;;;5134206;27;20027;-64
2021/06/07 04:54:29;;;;;;;7.05;3.90;;;;;;;;;;5134201;27;20474;-64
2021/06/07 04:56:55;;;;;;;8.10;4.13;;;;;;;;;;5134189;27;20385;-64
2021/06/07 04:59:21;;;;;;;7.88;3.90;;;;;;;;;;5133541;27;20007;-64
2021/06/07 05:01:47;;;;;;;11.38;4.20;;;;;;;;;;5133983;27;20023;-66
2021/06/07 05:04:13;;;;;;;8.75;4.38;;;;;;;;;;5133582;27;20023;-64
2021/06/07 05:06:39;;;;;;;8.55;4.55;;;;;;;;;;5133677;27;20023;-64
2021/06/07 05:09:05;;;;;;;8.98;4.35;;;;;;;;;;5133906;27;20015;-64
2021/06/07 05:11:31;;;;;;;9.57;4.40;;;;;;;;;;5133918;27;20019;-65
2021/06/07 05:13:57;;;;;;;8.95;4.30;;;;;;;;;;5133791;27;20043;-66
2021/06/07 05:16:23;;;;;;;8.70;4.60;;;;;;;;;;5115286;27;20434;-64
2021/06/07 05:18:50;;;;;;;7.57;4.55;;;;;;;;;;5133645;27;20023;-64
2021/06/07 05:21:16;;;;;;;8.82;4.20;;;;;;;;;;5133368;27;20016;-64
2021/06/07 05:23:42;;;;;;;8.00;4.30;;;;;;;;;;5115112;27;20038;-64
2021/06/07 05:26:08;;;;;;;7.03;4.55;;;;;;;;;;5133289;27;20027;-64
2021/06/07 05:28:34;;;;;;;10.27;4.40;;;;;;;;;;5133291;27;20470;-65
2021/06/07 05:31:00;;;;;;;7.63;4.30;;;;;;;;;;5133113;27;20145;-64
2021/06/07 05:33:26;;;;;;;9.07;4.38;;;;;;;;;;5140025;27;20023;-64
2021/06/07 05:35:53;;;;;;;5.72;4.15;;;;;;;;;;5153963;27;20105;-66
2021/06/07 05:38:19;;;;;;;9.70;3.72;;;;;;;;;;5153587;27;20038;-64
2021/06/07 05:40:48;;;;;;;7.85;4.20;;;;;;;;;;5153074;27;20053;-64
2021/06/07 05:43:19;;;;;;;10.00;3.95;;;;;;;;;;5153233;27;20026;-66
2021/06/07 05:45:45;;;;;;;6.75;3.75;;;;;;;;;;5153110;27;20058;-63
2021/06/07 05:48:11;;;;;;;7.82;4.35;;;;;;;;;;5152980;27;20460;-64
2021/06/07 05:50:39;;;;;;;7.45;4.05;;;;;;;;;;5152918;27;20037;-64
2021/06/07 05:53:05;;;;;;;8.10;4.13;;;;;;;;;;5152801;27;20019;-65
2021/06/07 05:55:34;;;;;;;7.50;3.97;;;;;;;;;;5152712;27;20026;-64
2021/06/07 05:58:01;;;;;;;8.18;3.50;;;;;;;;;;5152494;27;20022;-64
2021/06/07 06:00:29;;;;;;;6.47;3.80;;;;;;;;;;5134277;27;20026;-64
2021/06/07 06:02:55;;;;;;;11.18;3.72;;;;;;;;;;5153480;27;20465;-64
2021/06/07 06:05:22;;;;;;;7.88;4.03;;;;;;;;;;5153324;27;20078;-65
2021/06/07 06:07:48;;;;;;;10.40;4.55;;;;;;;;;;5152934;27;20015;-65
2021/06/07 06:10:15;;;;;;;7.95;3.90;;;;;;;;;;5153455;27;20030;-64
2021/06/07 06:12:41;;;;;;;11.13;4.35;;;;;;;;;;5153115;27;20070;-65
2021/06/07 06:15:08;;;;;;;7.43;3.88;;;;;;;;;;5153106;27;20018;-65
2021/06/07 06:17:34;;;;;;;11.85;4.38;;;;;;;;;;5152915;27;20019;-64
2021/06/07 06:20:00;;;;;;;9.90;4.25;;;;;;;;;;5153039;27;20052;-65
2021/06/07 06:22:26;;;;;;;8.82;4.18;;;;;;;;;;5153223;27;20023;-64
2021/06/07 06:24:52;;;;;;;8.90;4.25;;;;;;;;;;5153346;27;20022;-64
2021/06/07 06:27:19;;;;;;;10.02;3.75;;;;;;;;;;5153148;27;20204;-65
2021/06/07 06:29:45;;;;;;;6.10;3.80;;;;;;;;;;5152983;27;20017;-65
2021/06/07 06:32:12;;;;;;;8.48;3.85;;;;;;;;;;5143479;27;20118;-65
2021/06/07 06:34:39;;;;;;;7.22;4.00;;;;;;;;;;5142036;27;20101;-64
2021/06/07 06:37:05;;;;;;;12.05;4.45;;;;;;;;;;5135048;27;20030;-64
2021/06/07 06:39:32;;;;;;;7.22;3.60;;;;;;;;;;5132469;27;20037;-65
2021/06/07 06:41:58;;;;;;;11.23;4.25;;;;;;;;;;5131945;28;20092;-64
2021/06/07 06:44:24;;;;;;;7.55;3.90;;;;;;;;;;5132098;28;20516;-64
2021/06/07 06:46:50;;;;;;;9.95;4.05;;;;;;;;;;5132149;28;20062;-65
2021/06/07 06:49:16;;;;;;;8.93;3.60;;;;;;;;;;5132102;28;20011;-64
2021/06/07 06:51:42;;;;;;;7.82;3.67;;;;;;;;;;5132025;28;20033;-64
2021/06/07 06:54:08;;;;;;;8.55;3.97;;;;;;;;;;5132069;28;20466;-64
2021/06/07 06:56:34;;;;;;;9.95;4.05;;;;;;;;;;5132134;28;20016;-64
2021/06/07 06:59:00;;;;;;;7.55;3.13;;;;;;;;;;5131978;28;20019;-65
2021/06/07 07:01:27;;;;;;;7.53;3.50;;;;;;;;;;5131895;28;20015;-64
2021/06/07 07:03:53;;;;;;;12.95;4.18;;;;;;;;;;5132041;28;20102;-64
2021/06/07 07:06:24;;;;;;;7.40;3.58;;;;;;;;;;5131901;28;20039;-65
2021/06/07 07:08:50;;;;;;;6.95;3.55;;;;;;;;;;5132000;28;20022;-64
2021/06/07 07:11:16;;;;;;;5.32;2.90;;;;;;;;;;5132067;28;20554;-66
2021/06/07 07:13:42;;;;;;;9.57;3.67;;;;;;;;;;5132006;28;20027;-64
2021/06/07 07:16:08;;;;;;;8.98;3.85;;;;;;;;;;5131767;28;20016;-64
2021/06/07 07:18:34;;;;;;;6.35;3.58;;;;;;;;;;5131691;27;20116;-64
2021/06/07 07:21:00;;;;;;;6.15;3.72;;;;;;;;;;5135130;27;20373;-65
2021/06/07 07:23:26;;;;;;;8.45;3.95;;;;;;;;;;5135725;27;20030;-65
2021/06/07 07:25:52;;;;;;;5.28;3.20;;;;;;;;;;5135791;27;20490;-66
2021/06/07 07:28:18;;;;;;;11.70;4.00;;;;;;;;;;5135841;27;20068;-65
2021/06/07 07:30:45;;;;;;;8.27;4.00;;;;;;;;;;5135791;27;20088;-65
2021/06/07 07:33:12;;;;;;;7.85;4.25;;;;;;;;;;5139177;27;20021;-64
2021/06/07 07:35:39;;;;;;;6.30;3.72;;;;;;;;;;5150177;27;20031;-64
2021/06/07 07:38:05;;;;;;;6.82;3.42;;;;;;;;;;5156308;27;20438;-64
2021/06/07 07:40:31;;;;;;;9.48;4.32;;;;;;;;;;5156030;27;20061;-64
2021/06/07 07:42:57;;;;;;;7.93;4.10;;;;;;;;;;5156225;27;20057;-65
2021/06/07 07:45:26;;;;;;;8.02;3.30;;;;;;;;;;5156076;27;20048;-64
2021/06/07 07:47:55;;;;;;;6.18;3.60;;;;;;;;;;5156173;27;20023;-64
2021/06/07 07:50:21;;;;;;;8.27;3.40;;;;;;;;;;5156099;27;20065;-65
2021/06/07 07:52:48;;;;;;;6.78;3.70;;;;;;;;;;5156356;27;20027;-64
2021/06/07 07:55:17;;;;;;;10.20;3.58;;;;;;;;;;5156134;27;20098;-65
2021/06/07 07:57:44;;;;;;;7.18;3.22;;;;;;;;;;5155977;27;20053;-64
2021/06/07 08:00:11;;;;;;;9.93;3.55;;;;;;;;;;5155744;27;20019;-64
2021/06/07 08:02:38;;;;;;;7.75;3.05;;;;;;;;;;5155797;27;20027;-64
2021/06/07 08:05:04;;;;;;;5.47;3.42;;;;;;;;;;5155482;27;20041;-64
2021/06/07 08:07:30;;;;;;;6.05;2.58;;;;;;;;;;5155712;27;20046;-64
2021/06/07 08:09:56;;;;;;;6.20;3.05;;;;;;;;;;5155442;27;20026;-64
2021/06/07 08:12:22;;;;;;;5.38;2.83;;;;;;;;;;5155461;27;20101;-64
2021/06/07 08:14:48;;;;;;;6.13;3.10;;;;;;;;;;5137004;27;20015;-65
2021/06/07 08:17:16;;;;;;;7.20;3.47;;;;;;;;;;5147891;27;20019;-64
2021/06/07 08:19:42;;;;;;;8.65;3.00;;;;;;;;;;5142905;27;20022;-64
2021/06/07 08:22:09;;;;;;;9.00;2.65;;;;;;;;;;5143544;27;20015;-65
2021/06/07 08:24:35;;;;;;;9.60;3.00;;;;;;;;;;5144632;27;20106;-65
2021/06/07 08:27:02;;;;;;;6.10;3.17;;;;;;;;;;5145482;27;20056;-64
2021/06/07 08:29:28;;;;;;;8.27;3.35;;;;;;;;;;5143792;27;20022;-64
2021/06/07 08:31:54;;;;;;;7.82;3.67;;;;;;;;;;5145520;27;20046;-64
2021/06/07 08:34:20;;;;;;;7.07;2.85;;;;;;;;;;5146271;27;20389;-64
2021/06/07 08:36:46;;;;;;;5.85;3.03;;;;;;;;;;5115749;27;20023;-65
2021/06/07 08:39:13;;;;;;;6.35;3.17;;;;;;;;;;5134338;27;20077;-65
2021/06/07 08:41:39;;;;;;;8.55;3.22;;;;;;;;;;5134463;27;20050;-64
2021/06/07 08:44:05;;;;;;;6.10;3.33;;;;;;;;;;5134513;27;20019;-64
2021/06/07 08:46:31;;;;;;;8.25;3.67;;;;;;;;;;5134229;27;20056;-63
2021/06/07 08:48:58;;;;;;;4.45;2.95;;;;;;;;;;5133992;27;20478;-64
2021/06/07 08:51:24;;;;;;;7.32;3.10;;;;;;;;;;5133947;27;20648;-63
2021/06/07 08:53:51;;;;;;;6.75;3.08;;;;;;;;;;5134100;27;20012;-63
2021/06/07 08:56:17;;;;;;;7.95;3.08;;;;;;;;;;5134097;27;20140;-65
2021/06/07 08:58:43;;;;;;;22.73;3.30;;;;;;;;;;5134075;27;20098;-62
2021/06/07 09:01:10;;;;;;;7.28;3.00;;;;;;;;;;5115635;27;20015;-68
2021/06/07 09:03:36;;;;;;;7.57;2.67;;;;;;;;;;5116000;27;20482;-66
2021/06/07 09:06:03;;;;;;;6.22;2.67;;;;;;;;;;5115765;27;20363;-69
2021/06/07 09:08:47;;;;;;;6.82;2.97;;;;;;;;;;5115963;27;20055;-70
2021/06/07 09:11:15;;;;;;;4.82;2.80;;;;;;;;;;5134363;27;20061;-69
2021/06/07 09:13:42;;;;;;;4.45;2.60;;;;;;;;;;5115972;27;20019;-70
2021/06/07 09:16:09;;;;;;;4.22;2.50;;;;;;;;;;5134192;27;20030;-68
2021/06/07 09:18:37;;;;;;;4.78;2.58;;;;;;;;;;5133953;27;20023;-69
2021/06/07 09:21:15;;;;;;;4.38;2.45;;;;;;;;;;5115517;27;20057;-70
2021/06/07 09:23:41;;;;;;;4.93;2.70;;;;;;;;;;5115112;27;20077;-69
2021/06/07 09:26:21;;;;;;;5.10;2.63;;;;;;;;;;5115031;27;20390;-70
2021/06/07 09:28:47;;;;;;;4.93;2.88;;;;;;;;;;5133513;27;20019;-64
2021/06/07 09:31:13;;;;;;;4.60;2.60;;;;;;;;;;5133530;27;20023;-66
2021/06/07 09:33:40;;;;;;;6.47;2.80;;;;;;;;;;5138900;27;20496;-70
2021/06/07 09:36:25;;;;;;;5.38;2.95;;;;;;;;;;5153949;27;20037;-66
2021/06/07 09:38:51;;;;;;;4.72;2.60;;;;;;;;;;5154194;27;20022;-71
2021/06/07 09:41:17;;;;;;;6.90;2.95;;;;;;;;;;5153782;27;20121;-69
2021/06/07 09:43:50;;;;;;;4.85;2.92;;;;;;;;;;5153746;27;20027;-71
2021/06/07 09:46:17;;;;;;;6.32;3.35;;;;;;;;;;5154000;27;20030;-67
2021/06/07 09:48:43;;;;;;;6.18;3.38;;;;;;;;;;5154321;27;20023;-67
2021/06/07 09:51:09;;;;;;;5.97;3.28;;;;;;;;;;5135512;27;20031;-66
2021/06/07 09:53:55;;;;;;;5.30;3.42;;;;;;;;;;5154002;27;20026;-66
2021/06/07 09:56:22;;;;;;;5.55;3.13;;;;;;;;;;5153682;27;20011;-67
2021/06/07 09:58:48;;;;;;;5.88;3.53;;;;;;;;;;5154127;27;20023;-68
2021/06/07 10:01:15;;;;;;;6.53;3.50;;;;;;;;;;5153781;27;20538;-66
2021/06/07 10:03:43;;;;;;;9.80;3.72;;;;;;;;;;5153673;27;20027;-65
2021/06/07 10:06:20;;;;;;;5.68;3.40;;;;;;;;;;5153423;27;20134;-64
2021/06/07 10:08:47;;;;;;;6.32;3.55;;;;;;;;;;5153396;27;20027;-68
2021/06/07 10:11:40;;;;;;;5.40;3.30;;;;;;;;;;5153254;27;20019;-63
2021/06/07 10:14:06;;;;;;;;;;;;;;;;;;5153708;27;20033;-65
2021/06/07 10:16:32;;;;;;;7.25;3.50;;;;;;;;;;5134652;27;19903;-64
2021/06/07 10:19:02;;;;;;;6.35;3.30;;;;;;;;;;5153221;27;20023;-65
2021/06/07 10:21:28;;;;;;;4.97;3.10;;;;;;;;;;5153502;27;20030;-62
2021/06/07 10:23:54;;;;;;;5.47;3.28;;;;;;;;;;5153543;27;20102;-67
2021/06/07 10:26:20;;;;;;;4.88;3.08;;;;;;;;;;5152954;27;20027;-62
2021/06/07 10:28:52;;;;;;;6.13;3.05;;;;;;;;;;5153043;27;20098;-61
2021/06/07 10:31:19;;;;;;;7.85;3.33;;;;;;;;;;5134831;27;20503;-61
2021/06/07 10:34:02;;;;;;;4.85;2.80;;;;;;;;;;5153216;27;20411;-64
2021/06/07 10:36:29;;;;;;;7.00;3.55;;;;;;;;;;5152961;27;20019;-62
2021/06/07 10:41:44;;;;;;;21.50;3.90;;;;;;;;;;5153508;27;20069;-62
2021/06/07 10:44:10;;;;;;;15.18;3.58;;;;;;;;;;5142001;27;20067;-63
2021/06/07 10:46:41;;;;;;;7.57;3.60;;;;;;;;;;5131703;28;20436;-63
2021/06/07 10:49:26;;;;;;;5.30;3.05;;;;;;;;;;5132201;28;20023;-62
2021/06/07 10:52:08;;;;;;;10.55;3.60;;;;;;;;;;5132916;28;20049;-63
2021/06/07 10:54:37;;;;;;;8.43;3.60;;;;;;;;;;5135627;27;20051;-62
2021/06/07 10:57:26;;;;;;;8.90;4.05;;;;;;;;;;5136977;27;20046;-63
2021/06/07 10:59:53;;;;;;;8.43;3.60;;;;;;;;;;5071886;27;20160;-62
2021/06/07 11:02:20;;;;;;;10.27;4.03;;;;;;;;;;5136993;27;20031;-65
2021/06/07 11:04:46;;;;;;;5.60;3.55;;;;;;;;;;5136512;27;20031;-69
2021/06/07 11:07:21;;;;;;;5.63;3.60;;;;;;;;;;5136523;27;20517;-67
2021/06/07 11:10:06;;;;;;;7.72;3.83;;;;;;;;;;5136285;27;20019;-66
2021/06/07 11:12:33;;;;;;;6.75;4.30;;;;;;;;;;5117769;27;20087;-63
2021/06/07 11:15:13;;;;;;;6.57;3.65;;;;;;;;;;5136244;27;20133;-66
2021/06/07 11:17:39;;;;;;;9.27;3.72;;;;;;;;;;5135805;27;20106;-65
2021/06/07 11:20:06;;;;;;;8.30;3.70;;;;;;;;;;5136387;27;20016;-60
2021/06/07 11:22:50;;;;;;;6.38;3.70;;;;;;;;;;5136516;27;20020;-63
2021/06/07 11:25:19;;;;;;;8.68;3.72;;;;;;;;;;5135934;27;20117;-61
2021/06/07 11:27:45;;;;;;;6.57;3.42;;;;;;;;;;5136025;27;20083;-63
2021/06/07 11:30:14;;;;;;;8.05;3.30;;;;;;;;;;5135938;27;20027;-63
2021/06/07 11:32:41;;;;;;;5.55;3.38;;;;;;;;;;5136068;27;20488;-59
2021/06/07 11:35:07;;;;;;;5.80;3.67;;;;;;;;;;5152884;27;20030;-63
2021/06/07 11:37:34;;;;;;;5.75;3.50;;;;;;;;;;5156537;27;20018;-64
2021/06/07 11:40:01;;;;;;;5.55;3.40;;;;;;;;;;5156248;27;20050;-66
2021/06/07 11:42:28;;;;;;;7.88;3.55;;;;;;;;;;5156064;27;20117;-65
2021/06/07 11:44:56;;;;;;;5.70;3.53;;;;;;;;;;5156255;27;20026;-64
2021/06/07 11:47:48;;;;;;;7.85;3.35;;;;;;;;;;5156657;27;20019;-66
2021/06/07 11:50:17;;;;;;;7.40;3.20;;;;;;;;;;5156389;27;20011;-64
2021/06/07 11:52:50;;;;;;;8.35;3.38;;;;;;;;;;5156335;27;20029;-65
2021/06/07 11:55:16;;;;;;;6.65;3.25;;;;;;;;;;5137986;27;20033;-66
2021/06/07 11:57:42;;;;;;;7.03;3.05;;;;;;;;;;5156309;27;20018;-66
2021/06/07 12:00:09;;;;;;;5.80;3.15;;;;;;;;;;5156312;27;20503;-65
2021/06/07 12:02:35;;;;;;;5.57;3.30;;;;;;;;;;5137805;27;20058;-65
2021/06/07 12:05:11;;;;;;;6.70;3.15;;;;;;;;;;5155546;27;20076;-64
2021/06/07 12:07:38;;;;;;;7.22;3.50;;;;;;;;;;5156034;27;20545;-65
2021/06/07 12:10:06;;;;;;;6.13;3.17;;;;;;;;;;5155691;27;20026;-67
2021/06/07 12:12:33;;;;;;;5.53;3.30;;;;;;;;;;5155677;27;20076;-69
2021/06/07 12:15:19;;;;;;;6.78;3.45;;;;;;;;;;5156178;27;20470;-64
2021/06/07 12:17:47;;;;;;;4.85;3.28;;;;;;;;;;5150019;27;20019;-64
2021/06/07 12:20:14;;;;;;;6.13;2.85;;;;;;;;;;5155683;27;20023;-63
2021/06/07 12:22:44;;;;;;;8.00;3.10;;;;;;;;;;5154998;27;20041;-64
2021/06/07 12:25:20;;;;;;;5.78;2.90;;;;;;;;;;5155488;27;20030;-65
2021/06/07 12:30:36;;;;;;;4.32;2.55;;;;;;;;;;5156046;27;20087;-65
2021/06/07 12:33:03;;;;;;;5.30;2.90;;;;;;;;;;5155778;27;20018;-65
2021/06/07 12:35:31;;;;;;;6.07;2.85;;;;;;;;;;5136549;27;20084;-60
2021/06/07 12:38:03;;;;;;;6.68;2.72;;;;;;;;;;5155956;27;20033;-60
2021/06/07 12:40:42;;;;;;;5.20;2.60;;;;;;;;;;5155550;27;20469;-60
2021/06/07 12:43:08;;;;;;;6.20;3.22;;;;;;;;;;5155816;27;20022;-60
2021/06/07 12:45:35;;;;;;;6.63;3.70;;;;;;;;;;5155449;27;20538;-60
2021/06/07 12:48:20;;;;;;;7.88;4.40;;;;;;;;;;5155874;27;20023;-60
2021/06/07 12:50:51;;;;;;;8.90;4.63;;;;;;;;;;5155744;27;20023;-60
2021/06/07 12:53:18;;;;;;;7.07;4.35;;;;;;;;;;5155148;27;20045;-60
2021/06/07 12:55:46;;;;;;;7.65;3.72;;;;;;;;;;5155612;27;20022;-60
2021/06/07 12:58:13;;;;;;;6.97;3.60;;;;;;;;;;5155564;27;20019;-60
2021/06/07 13:00:41;;;;;;;7.72;3.95;;;;;;;;;;5155460;27;20041;-60
2021/06/07 13:03:24;;;;;;;7.00;4.03;;;;;;;;;;5155347;27;20373;-60
2021/06/07 13:06:19;;;;;;;4.93;2.90;;;;;;;;;;5154988;27;20027;-60
2021/06/07 13:08:57;;;;;;;6.10;3.38;;;;;;;;;;5133411;27;20042;-60
2021/06/07 13:11:24;;;;;;;5.20;3.40;;;;;;;;;;5155023;27;20098;-60
2021/06/07 13:13:52;;;;;;;8.75;3.15;;;;;;;;;;5155246;27;20497;-60
2021/06/07 13:16:25;;;;;;;6.75;2.90;;;;;;;;;;5154855;27;20027;-61
2021/06/07 13:18:55;;;;;;;9.27;3.38;;;;;;;;;;5133248;27;20016;-65
2021/06/07 13:21:37;;;;;;;5.78;3.55;;;;;;;;;;5133717;27;20041;-64
2021/06/07 13:24:04;;;;;;;4.95;3.05;;;;;;;;;;5145006;27;20015;-64
2021/06/07 13:26:34;;;;;;;5.10;3.28;;;;;;;;;;5133535;27;20458;-62
2021/06/07 13:29:12;;;;;;;4.72;3.20;;;;;;;;;;5148022;27;20027;-66
2021/06/07 13:31:48;;;;;;;6.30;2.92;;;;;;;;;;5154199;27;20045;-65
2021/06/07 13:34:14;;;;;;;4.88;3.08;;;;;;;;;;5152588;27;20030;-67
2021/06/07 13:36:41;;;;;;;6.10;3.00;;;;;;;;;;5153911;27;20537;-66
2021/06/07 13:39:07;;;;;;;6.15;3.30;;;;;;;;;;5154104;27;20079;-63
2021/06/07 13:41:33;;;;;;;5.10;3.15;;;;;;;;;;5153606;27;20113;-66
2021/06/07 13:44:00;;;;;;;5.05;2.92;;;;;;;;;;5154475;27;20018;-63
2021/06/07 13:46:26;;;;;;;6.13;2.80;;;;;;;;;;5141863;27;20171;-64
2021/06/07 13:48:53;;;;;;;5.18;3.17;;;;;;;;;;5133558;27;20023;-64
2021/06/07 13:51:32;;;;;;;5.28;2.60;;;;;;;;;;5133289;27;20034;-65
2021/06/07 13:54:13;;;;;;;4.35;2.42;;;;;;;;;;5133025;27;20023;-64
2021/06/07 13:56:40;;;;;;;3.95;2.30;;;;;;;;;;5133080;27;20031;-62
2021/06/07 13:59:16;;;;;;;4.53;2.40;;;;;;;;;;5132990;27;20075;-63
2021/06/07 14:01:42;;;;;;;8.18;2.97;;;;;;;;;;5133019;27;20035;-65
2021/06/07 14:04:09;;;;;;;4.40;2.80;;;;;;;;;;5132775;27;20546;-66
2021/06/07 14:06:36;;;;;;;4.38;2.53;;;;;;;;;;5132464;27;20031;-60
2021/06/07 14:09:03;;;;;;;4.78;2.50;;;;;;;;;;5132863;27;20011;-59
2021/06/07 14:11:30;;;;;;;4.85;2.90;;;;;;;;;;5132832;27;20057;-66
2021/06/07 14:13:57;;;;;;;7.55;2.70;;;;;;;;;;5114106;27;20084;-65
2021/06/07 14:16:24;;;;;;;4.22;2.50;;;;;;;;;;5136024;27;20023;-65
2021/06/07 14:18:50;;;;;;;4.95;2.40;;;;;;;;;;5133409;27;20019;-64
2021/06/07 14:21:24;;;;;;;6.55;2.78;;;;;;;;;;5132832;27;20054;-66
2021/06/07 14:26:35;;;;;;;5.25;2.95;;;;;;;;;;5132722;27;20061;-65
2021/06/07 14:29:02;;;;;;;4.47;2.50;;;;;;;;;;5132098;27;20122;-62
2021/06/07 14:31:28;;;;;;;3.95;2.35;;;;;;;;;;5132820;27;20026;-64
2021/06/07 14:33:54;;;;;;;4.03;2.67;;;;;;;;;;5114635;28;20478;-67
2021/06/07 14:36:21;;;;;;;4.22;2.80;;;;;;;;;;5114582;28;20031;-65
2021/06/07 14:38:47;;;;;;;4.03;2.63;;;;;;;;;;5132618;27;20020;-62
2021/06/07 14:41:14;;;;;;;4.45;2.65;;;;;;;;;;5132312;27;20072;-63
2021/06/07 14:43:42;;;;;;;7.88;2.72;;;;;;;;;;5132140;28;20023;-63
2021/06/07 14:46:08;;;;;;;6.65;2.70;;;;;;;;;;5131940;28;20580;-66
2021/06/07 14:48:35;;;;;;;5.05;2.50;;;;;;;;;;5132126;28;20481;-65
2021/06/07 14:51:02;;;;;;;4.97;2.30;;;;;;;;;;5132378;28;20058;-64
2021/06/07 14:53:29;;;;;;;4.25;2.35;;;;;;;;;;5132279;28;20561;-64
2021/06/07 14:55:56;;;;;;;3.70;2.15;;;;;;;;;;5113989;28;20015;-63